createdAt,value
2023-02-27T00:00:22.229Z,13.77
2023-02-27T00:02:51.214Z,13.63
2023-02-27T00:05:20.002Z,13.72
2023-02-27T00:07:47.624Z,13.59
2023-02-27T00:10:15.332Z,13.47
2023-02-27T00:12:44.514Z,13.64
2023-02-27T00:15:17.796Z,13.82
2023-02-27T00:17:45.314Z,13.60
2023-02-27T00:20:15.274Z,13.76
2023-02-27T00:22:43.170Z,13.72
2023-02-27T00:25:11.107Z,13.94
2023-02-27T00:27:40.127Z,13.75
2023-02-27T00:30:09.572Z,13.70
2023-02-27T00:32:37.039Z,13.71
2023-02-27T00:35:10.330Z,13.61
2023-02-27T00:37:37.860Z,13.56
2023-02-27T00:40:06.472Z,13.92
2023-02-27T00:42:33.827Z,14.06
2023-02-27T00:45:03.609Z,14.01
2023-02-27T00:47:32.648Z,13.96
2023-02-27T00:50:00.332Z,13.91
2023-02-27T00:52:28.174Z,13.91
2023-02-27T00:54:55.381Z,14.15
2023-02-27T00:57:23.082Z,14.14
2023-02-27T00:59:50.997Z,14.14
2023-02-27T01:02:18.714Z,14.14
2023-02-27T01:04:45.917Z,14.14
2023-02-27T01:07:13.863Z,13.92
2023-02-27T01:09:41.047Z,13.97
2023-02-27T01:12:09.063Z,14.01
2023-02-27T01:14:36.887Z,14.03
2023-02-27T01:17:04.142Z,13.85
2023-02-27T01:19:32.498Z,13.95
2023-02-27T01:21:59.644Z,14.16
2023-02-27T01:24:27.161Z,14.20
2023-02-27T01:26:54.276Z,14.24
2023-02-27T01:29:21.416Z,14.05
2023-02-27T01:31:49.236Z,14.28
2023-02-27T01:34:18.564Z,14.31
2023-02-27T01:36:45.745Z,14.43
2023-02-27T01:39:17.228Z,14.43
2023-02-27T01:41:44.357Z,14.33
2023-02-27T01:44:13.465Z,14.30
2023-02-27T01:46:41.532Z,14.11
2023-02-27T01:49:14.798Z,14.05
2023-02-27T01:51:48.272Z,13.98
2023-02-27T01:54:20.677Z,13.82
2023-02-27T01:56:48.235Z,13.78
2023-02-27T01:59:16.928Z,13.89
2023-02-27T02:01:44.791Z,14.07
2023-02-27T02:04:30.405Z,13.90
2023-02-27T02:07:12.747Z,13.77
2023-02-27T02:09:49.008Z,13.85
2023-02-27T02:12:18.847Z,13.75
2023-02-27T02:14:46.260Z,13.59
2023-02-27T02:17:27.331Z,13.77
2023-02-27T02:20:22.196Z,13.87
2023-02-27T02:23:25.580Z,13.52
2023-02-27T02:26:22.386Z,13.52
2023-02-27T02:29:28.374Z,13.57
2023-02-27T02:32:07.978Z,13.62
2023-02-27T02:34:56.916Z,13.73
2023-02-27T02:37:42.772Z,13.48
2023-02-27T02:40:47.553Z,13.25
2023-02-27T02:43:18.249Z,12.65
2023-02-27T02:46:18.929Z,12.76
2023-02-27T02:49:15.637Z,12.65
2023-02-27T02:52:02.884Z,12.55
2023-02-27T02:54:56.724Z,12.49
2023-02-27T02:57:58.421Z,12.47
2023-02-27T03:00:32.107Z,12.56
2023-02-27T03:03:13.117Z,12.82
2023-02-27T03:05:48.231Z,12.36
2023-02-27T03:08:22.201Z,12.69
2023-02-27T03:10:57.877Z,12.69
2023-02-27T03:13:46.407Z,12.75
2023-02-27T03:16:26.430Z,12.91
2023-02-27T03:18:59.588Z,12.99
2023-02-27T03:21:36.327Z,12.99
2023-02-27T03:24:08.107Z,13.17
2023-02-27T03:26:42.711Z,13.23
2023-02-27T03:29:18.430Z,13.54
2023-02-27T03:31:50.180Z,13.81
2023-02-27T03:34:29.564Z,13.70
2023-02-27T03:37:30.340Z,13.77
2023-02-27T03:40:30.927Z,13.69
2023-02-27T03:43:31.045Z,13.50
2023-02-27T03:46:20.253Z,13.25
2023-02-27T03:48:47.994Z,12.91
2023-02-27T03:51:25.369Z,12.96
2023-02-27T03:54:00.034Z,12.98
2023-02-27T03:56:56.003Z,13.17
2023-02-27T03:59:27.770Z,13.04
2023-02-27T04:01:57.278Z,13.09
2023-02-27T04:04:26.081Z,12.90
2023-02-27T04:07:23.171Z,13.19
2023-02-27T04:10:08.754Z,13.35
2023-02-27T04:12:48.957Z,13.61
2023-02-27T04:15:47.872Z,13.83
2023-02-27T04:18:43.013Z,13.79
2023-02-27T04:21:20.187Z,13.68
2023-02-27T04:23:58.107Z,13.44
2023-02-27T04:26:25.141Z,13.30
2023-02-27T04:29:07.378Z,12.95
2023-02-27T04:32:06.902Z,12.80
2023-02-27T04:34:50.984Z,12.59
2023-02-27T04:37:48.972Z,12.53
2023-02-27T04:40:20.843Z,12.25
2023-02-27T04:42:55.098Z,12.28
2023-02-27T04:45:24.775Z,12.27
2023-02-27T04:48:00.707Z,12.19
2023-02-27T04:50:41.825Z,12.14
2023-02-27T04:53:25.699Z,12.22
2023-02-27T04:56:04.784Z,12.00
2023-02-27T04:58:36.659Z,11.96
2023-02-27T05:01:12.924Z,11.95
2023-02-27T05:03:45.336Z,11.93
2023-02-27T05:06:18.191Z,11.87
2023-02-27T05:08:59.188Z,11.69
2023-02-27T05:11:41.100Z,11.67
2023-02-27T05:14:22.397Z,11.82
2023-02-27T05:16:56.914Z,11.74
2023-02-27T05:19:24.313Z,11.63
2023-02-27T05:22:09.100Z,11.72
2023-02-27T05:24:51.342Z,11.91
2023-02-27T05:27:33.013Z,11.92
2023-02-27T05:30:08.812Z,11.76
2023-02-27T05:32:39.186Z,11.74
2023-02-27T05:35:28.050Z,11.51
2023-02-27T05:38:08.450Z,11.55
2023-02-27T05:40:45.390Z,11.42
2023-02-27T05:43:23.644Z,11.27
2023-02-27T05:45:56.632Z,11.38
2023-02-27T05:48:32.591Z,11.18
2023-02-27T05:51:00.348Z,11.15
2023-02-27T05:53:33.658Z,11.17
2023-02-27T05:56:05.297Z,11.23
2023-02-27T05:58:35.675Z,11.30
2023-02-27T06:01:06.361Z,11.40
2023-02-27T06:03:35.782Z,11.65
2023-02-27T06:06:06.611Z,12.15
2023-02-27T06:08:34.521Z,12.28
2023-02-27T06:11:02.973Z,12.33
2023-02-27T06:13:30.360Z,12.55
2023-02-27T06:15:57.517Z,12.55
2023-02-27T06:18:25.011Z,12.79
2023-02-27T06:20:52.201Z,12.64
2023-02-27T06:23:19.538Z,12.81
2023-02-27T06:25:47.308Z,12.85
2023-02-27T06:28:14.717Z,12.74
2023-02-27T06:30:42.288Z,12.86
2023-02-27T06:33:10.494Z,12.79
2023-02-27T06:35:37.621Z,12.78
2023-02-27T06:38:05.189Z,12.84
2023-02-27T06:40:32.788Z,12.97
2023-02-27T06:42:59.906Z,13.13
2023-02-27T06:45:28.920Z,13.23
2023-02-27T06:47:56.037Z,13.35
2023-02-27T06:50:23.270Z,13.45
2023-02-27T06:52:50.472Z,13.73
2023-02-27T06:55:20.983Z,14.08
2023-02-27T06:57:48.967Z,14.08
2023-02-27T07:00:17.274Z,13.99
2023-02-27T07:02:44.483Z,13.83
2023-02-27T07:05:14.468Z,13.57
2023-02-27T07:07:41.742Z,13.39
2023-02-27T07:10:14.005Z,13.41
2023-02-27T07:12:41.636Z,13.11
2023-02-27T07:15:09.625Z,13.22
2023-02-27T07:17:38.336Z,13.11
2023-02-27T07:20:08.382Z,13.27
2023-02-27T07:22:35.535Z,13.24
2023-02-27T07:25:03.388Z,13.34
2023-02-27T07:27:31.482Z,13.26
2023-02-27T07:29:58.689Z,13.08
2023-02-27T07:32:25.804Z,12.94
2023-02-27T07:34:53.470Z,12.93
2023-02-27T07:37:20.803Z,12.90
2023-02-27T07:39:48.347Z,13.07
2023-02-27T07:42:15.624Z,12.96
2023-02-27T07:44:43.890Z,12.97
2023-02-27T07:47:11.546Z,13.25
2023-02-27T07:49:38.908Z,13.11
2023-02-27T07:52:07.866Z,13.22
2023-02-27T07:54:37.729Z,13.24
2023-02-27T07:57:05.567Z,13.41
2023-02-27T07:59:33.396Z,13.44
2023-02-27T08:02:00.591Z,13.80
2023-02-27T08:04:28.301Z,13.67
2023-02-27T08:06:55.562Z,14.03
2023-02-27T08:09:22.656Z,14.31
2023-02-27T08:11:49.922Z,14.56
2023-02-27T08:14:17.094Z,14.73
2023-02-27T08:16:44.705Z,14.44
2023-02-27T08:19:13.894Z,14.52
2023-02-27T08:21:41.477Z,14.83
2023-02-27T08:24:08.780Z,15.23
2023-02-27T08:26:35.907Z,15.44
2023-02-27T08:29:03.244Z,15.68
2023-02-27T08:31:30.698Z,16.02
2023-02-27T08:34:09.366Z,16.16
2023-02-27T08:36:38.223Z,16.46
2023-02-27T08:39:09.196Z,16.70
2023-02-27T08:41:36.783Z,16.79
2023-02-27T08:44:04.425Z,17.03
2023-02-27T08:46:32.075Z,17.20
2023-02-27T08:48:59.308Z,17.33
2023-02-27T08:51:26.862Z,17.35
2023-02-27T08:53:59.071Z,17.46
2023-02-27T08:56:27.489Z,17.51
2023-02-27T08:58:55.500Z,17.77
2023-02-27T09:01:22.976Z,17.75
2023-02-27T09:03:50.574Z,17.79
2023-02-27T09:06:17.707Z,17.79
2023-02-27T09:08:45.442Z,17.87
2023-02-27T09:11:12.552Z,18.15
2023-02-27T09:13:39.689Z,18.23
2023-02-27T09:16:07.133Z,18.46
2023-02-27T09:18:34.287Z,18.60
2023-02-27T09:21:02.096Z,18.69
2023-02-27T09:23:29.413Z,18.66
2023-02-27T09:25:56.529Z,18.75
2023-02-27T09:28:23.875Z,18.93
2023-02-27T09:30:51.076Z,19.08
2023-02-27T09:33:18.178Z,18.93
2023-02-27T09:35:45.360Z,19.02
2023-02-27T09:38:13.101Z,19.02
2023-02-27T09:40:45.088Z,18.97
2023-02-27T09:43:44.222Z,19.13
2023-02-27T09:46:19.223Z,19.40
2023-02-27T09:48:51.734Z,19.22
2023-02-27T09:51:20.652Z,19.36
2023-02-27T09:53:50.033Z,19.60
2023-02-27T09:56:20.818Z,19.79
2023-02-27T09:58:54.004Z,19.93
2023-02-27T10:01:30.328Z,20.06
2023-02-27T10:04:20.083Z,20.09
2023-02-27T10:07:23.336Z,20.19
2023-02-27T10:10:15.809Z,20.22
2023-02-27T10:13:05.264Z,20.35
2023-02-27T10:15:42.160Z,20.39
2023-02-27T10:18:35.598Z,20.55
2023-02-27T10:21:15.671Z,20.49
2023-02-27T10:23:47.614Z,20.52
2023-02-27T10:26:21.430Z,20.43
2023-02-27T10:28:48.851Z,20.67
2023-02-27T10:31:22.426Z,20.67
2023-02-27T10:33:51.137Z,20.70
2023-02-27T10:36:32.515Z,20.97
2023-02-27T10:39:07.247Z,20.99
2023-02-27T10:41:36.492Z,21.06
2023-02-27T10:44:03.823Z,21.12
2023-02-27T10:46:35.043Z,20.99
2023-02-27T10:49:06.716Z,21.13
2023-02-27T10:51:38.466Z,21.19
2023-02-27T10:54:24.145Z,21.17
2023-02-27T10:56:57.392Z,21.02
2023-02-27T10:59:29.482Z,21.06
2023-02-27T11:02:01.797Z,20.89
2023-02-27T11:04:38.333Z,21.05
2023-02-27T11:07:09.600Z,20.88
2023-02-27T11:09:37.443Z,20.92
2023-02-27T11:12:24.514Z,20.87
2023-02-27T11:14:54.742Z,20.82
2023-02-27T11:17:43.936Z,20.90
2023-02-27T11:20:35.642Z,20.90
2023-02-27T11:23:10.941Z,20.79
2023-02-27T11:25:38.206Z,20.76
2023-02-27T11:28:29.813Z,20.95
2023-02-27T11:31:26.888Z,20.98
2023-02-27T11:33:57.833Z,20.96
2023-02-27T11:36:46.258Z,21.11
2023-02-27T11:39:31.899Z,21.10
2023-02-27T11:42:12.339Z,21.23
2023-02-27T11:44:51.591Z,21.39
2023-02-27T11:47:27.372Z,21.25
2023-02-27T11:50:12.177Z,21.47
2023-02-27T11:53:18.000Z,21.58
2023-02-27T11:55:47.721Z,21.62
2023-02-27T11:58:19.596Z,21.57
2023-02-27T12:00:59.547Z,21.54
2023-02-27T12:03:58.006Z,21.64
2023-02-27T12:06:41.073Z,21.54
2023-02-27T12:09:39.129Z,21.81
2023-02-27T12:12:15.850Z,21.81
2023-02-27T12:14:53.116Z,21.84
2023-02-27T12:17:32.270Z,21.71
2023-02-27T12:20:19.868Z,21.89
2023-02-27T12:22:52.304Z,21.85
2023-02-27T12:25:39.120Z,21.85
2023-02-27T12:28:34.375Z,21.94
2023-02-27T12:31:22.825Z,22.05
2023-02-27T12:33:59.388Z,21.92
2023-02-27T12:36:26.697Z,21.98
2023-02-27T12:38:54.571Z,21.93
2023-02-27T12:41:51.431Z,21.85
2023-02-27T12:44:44.132Z,21.81
2023-02-27T12:47:23.439Z,21.61
2023-02-27T12:50:16.143Z,21.53
2023-02-27T12:53:07.737Z,21.45
2023-02-27T12:55:47.944Z,21.37
2023-02-27T12:58:34.697Z,21.32
2023-02-27T13:01:18.791Z,21.30
2023-02-27T13:03:51.716Z,21.34
2023-02-27T13:06:30.687Z,21.32
2023-02-27T13:09:10.185Z,21.35
2023-02-27T13:12:20.045Z,21.47
2023-02-27T13:14:50.075Z,21.26
2023-02-27T13:17:27.083Z,21.13
2023-02-27T13:20:05.205Z,20.96
2023-02-27T13:23:04.170Z,21.01
2023-02-27T13:25:36.652Z,20.90
2023-02-27T13:28:09.140Z,20.62
2023-02-27T13:30:41.848Z,20.66
2023-02-27T13:33:38.088Z,20.63
2023-02-27T13:36:36.465Z,20.41
2023-02-27T13:39:03.808Z,19.89
2023-02-27T13:41:36.255Z,19.89
2023-02-27T13:44:35.841Z,19.78
2023-02-27T13:47:31.132Z,19.50
2023-02-27T13:50:03.786Z,19.20
2023-02-27T13:52:36.659Z,19.08
2023-02-27T13:55:19.007Z,18.87
2023-02-27T13:57:48.189Z,18.56
2023-02-27T14:00:15.326Z,18.28
2023-02-27T14:02:59.806Z,18.09
2023-02-27T14:05:35.438Z,17.87
2023-02-27T14:08:08.459Z,17.71
2023-02-27T14:10:37.525Z,17.54
2023-02-27T14:13:05.484Z,17.46
2023-02-27T14:15:34.000Z,17.42
2023-02-27T14:18:14.255Z,17.13
2023-02-27T14:20:51.971Z,17.08
2023-02-27T14:23:25.183Z,17.08
2023-02-27T14:26:00.185Z,16.85
2023-02-27T14:28:32.510Z,16.88
2023-02-27T14:31:18.584Z,16.72
2023-02-27T14:33:48.739Z,16.60
2023-02-27T14:36:20.922Z,16.58
2023-02-27T14:38:49.499Z,16.67
2023-02-27T14:41:29.298Z,16.63
2023-02-27T14:43:58.450Z,16.61
2023-02-27T14:46:27.418Z,16.59
2023-02-27T14:49:00.603Z,16.64
2023-02-27T14:51:30.843Z,16.74
2023-02-27T14:54:00.125Z,16.61
2023-02-27T14:56:27.762Z,16.71
2023-02-27T14:59:04.398Z,16.65
2023-02-27T15:01:36.319Z,16.71
2023-02-27T15:04:05.153Z,16.84
2023-02-27T15:06:45.435Z,16.89
2023-02-27T15:09:25.841Z,16.80
2023-02-27T15:12:03.545Z,16.97
2023-02-27T15:14:37.440Z,16.95
2023-02-27T15:17:14.803Z,16.99
2023-02-27T15:19:57.279Z,16.77
2023-02-27T15:22:38.993Z,16.77
2023-02-27T15:25:08.447Z,16.52
2023-02-27T15:27:39.919Z,16.22
2023-02-27T15:30:09.778Z,16.07
2023-02-27T15:32:43.094Z,15.76
2023-02-27T15:35:19.133Z,15.58
2023-02-27T15:37:52.221Z,15.05
2023-02-27T15:40:23.809Z,15.00
2023-02-27T15:42:53.426Z,14.68
2023-02-27T15:45:23.800Z,14.65
2023-02-27T15:47:51.642Z,14.56
2023-02-27T15:50:18.813Z,14.46
2023-02-27T15:53:07.562Z,14.28
2023-02-27T15:55:41.024Z,13.83
2023-02-27T15:58:29.133Z,13.94
2023-02-27T16:01:13.334Z,14.00
2023-02-27T16:03:46.820Z,13.86
2023-02-27T16:06:21.926Z,13.83
2023-02-27T16:08:57.809Z,13.83
2023-02-27T16:11:32.856Z,13.79
2023-02-27T16:14:00.456Z,13.84
2023-02-27T16:16:36.494Z,13.86
2023-02-27T16:19:28.434Z,13.71
2023-02-27T16:22:14.227Z,13.90
2023-02-27T16:24:42.690Z,14.19
2023-02-27T16:27:19.176Z,14.39
2023-02-27T16:29:47.349Z,14.31
2023-02-27T16:32:36.587Z,14.47
2023-02-27T16:35:05.984Z,14.53
2023-02-27T16:37:37.348Z,14.57
2023-02-27T16:40:17.908Z,14.65
2023-02-27T16:42:47.155Z,14.54
2023-02-27T16:45:20.096Z,14.22
2023-02-27T16:47:53.171Z,14.32
2023-02-27T16:50:27.011Z,14.37
2023-02-27T16:52:54.518Z,14.35
2023-02-27T16:55:22.612Z,14.51
2023-02-27T16:57:49.776Z,14.36
2023-02-27T17:00:19.469Z,14.05
2023-02-27T17:02:49.448Z,14.10
2023-02-27T17:05:17.370Z,13.94
2023-02-27T17:07:45.922Z,14.11
2023-02-27T17:10:19.219Z,14.22
2023-02-27T17:12:48.130Z,13.96
2023-02-27T17:15:16.255Z,13.99
2023-02-27T17:17:44.438Z,14.13
2023-02-27T17:20:13.525Z,14.01
2023-02-27T17:22:43.915Z,13.90
2023-02-27T17:25:12.541Z,14.02
2023-02-27T17:27:41.566Z,13.68
2023-02-27T17:30:09.541Z,13.78
2023-02-27T17:32:37.967Z,13.64
2023-02-27T17:35:05.671Z,13.66
2023-02-27T17:37:33.058Z,13.52
2023-02-27T17:40:04.044Z,13.54
2023-02-27T17:42:32.329Z,13.26
2023-02-27T17:44:59.522Z,13.07
2023-02-27T17:47:26.627Z,13.11
2023-02-27T17:49:53.791Z,12.88
2023-02-27T17:52:20.951Z,12.71
2023-02-27T17:54:48.060Z,12.57
2023-02-27T17:57:15.277Z,12.57
2023-02-27T17:59:43.598Z,12.41
2023-02-27T18:02:15.097Z,12.54
2023-02-27T18:04:42.991Z,12.78
2023-02-27T18:07:10.343Z,12.99
2023-02-27T18:09:37.459Z,12.90
2023-02-27T18:12:05.569Z,13.17
2023-02-27T18:14:32.775Z,13.31
2023-02-27T18:17:00.029Z,13.24
2023-02-27T18:19:27.281Z,13.21
2023-02-27T18:21:54.425Z,13.27
2023-02-27T18:24:21.652Z,13.34
2023-02-27T18:26:49.432Z,13.51
2023-02-27T18:29:18.460Z,13.56
2023-02-27T18:31:47.184Z,13.65
2023-02-27T18:34:16.162Z,13.43
2023-02-27T18:36:43.390Z,13.51
2023-02-27T18:39:10.951Z,13.46
2023-02-27T18:41:38.131Z,13.19
2023-02-27T18:44:07.343Z,13.04
2023-02-27T18:46:35.946Z,12.75
2023-02-27T18:49:03.403Z,12.72
2023-02-27T18:51:30.711Z,12.57
2023-02-27T18:54:00.150Z,12.72
2023-02-27T18:56:31.025Z,12.63
2023-02-27T18:59:02.316Z,12.64
2023-02-27T19:01:35.271Z,12.66
2023-02-27T19:04:05.914Z,12.70
2023-02-27T19:06:42.252Z,12.62
2023-02-27T19:09:17.459Z,12.43
2023-02-27T19:11:47.250Z,12.59
2023-02-27T19:14:16.371Z,12.53
2023-02-27T19:16:44.366Z,12.32
2023-02-27T19:19:20.055Z,12.37
2023-02-27T19:21:51.010Z,12.14
2023-02-27T19:24:18.632Z,12.30
2023-02-27T19:26:48.892Z,12.07
2023-02-27T19:29:17.541Z,12.35
2023-02-27T19:31:45.089Z,12.39
2023-02-27T19:34:14.815Z,12.41
2023-02-27T19:36:42.119Z,12.35
2023-02-27T19:39:11.184Z,12.32
2023-02-27T19:41:38.736Z,12.27
2023-02-27T19:44:06.124Z,12.36
2023-02-27T19:46:39.171Z,12.42
2023-02-27T19:49:08.537Z,12.32
2023-02-27T19:51:39.309Z,12.45
2023-02-27T19:54:06.594Z,12.27
2023-02-27T19:56:33.878Z,12.21
2023-02-27T19:59:01.656Z,12.48
2023-02-27T20:01:32.691Z,12.57
2023-02-27T20:04:01.287Z,12.68
2023-02-27T20:06:31.021Z,12.54
2023-02-27T20:08:59.163Z,12.66
2023-02-27T20:11:33.190Z,12.50
2023-02-27T20:14:00.697Z,12.75
2023-02-27T20:16:30.949Z,12.65
2023-02-27T20:18:58.779Z,12.63
2023-02-27T20:21:28.759Z,12.40
2023-02-27T20:23:56.339Z,12.59
2023-02-27T20:26:28.946Z,12.54
2023-02-27T20:29:00.184Z,12.58
2023-02-27T20:31:30.521Z,12.58
2023-02-27T20:34:00.382Z,12.55
2023-02-27T20:36:28.482Z,12.68
2023-02-27T20:38:55.912Z,12.61
2023-02-27T20:41:24.316Z,12.58
2023-02-27T20:43:52.425Z,12.51
2023-02-27T20:46:23.102Z,12.60
2023-02-27T20:48:51.101Z,12.57
2023-02-27T20:51:24.988Z,12.56
2023-02-27T20:53:57.782Z,12.38
2023-02-27T20:56:28.672Z,12.44
2023-02-27T20:58:56.118Z,12.65
2023-02-27T21:01:23.354Z,12.65
2023-02-27T21:03:51.161Z,12.62
2023-02-27T21:06:18.900Z,12.56
2023-02-27T21:08:49.093Z,12.57
2023-02-27T21:11:21.935Z,12.65
2023-02-27T21:13:50.192Z,12.81
2023-02-27T21:16:18.973Z,12.80
2023-02-27T21:18:47.207Z,12.70
2023-02-27T21:21:17.707Z,12.93
2023-02-27T21:23:45.345Z,12.94
2023-02-27T21:26:25.564Z,12.90
2023-02-27T21:29:01.674Z,12.98
2023-02-27T21:31:32.144Z,12.73
2023-02-27T21:34:01.509Z,12.76
2023-02-27T21:36:31.624Z,12.67
2023-02-27T21:39:04.376Z,12.49
2023-02-27T21:41:32.029Z,12.37
2023-02-27T21:44:00.254Z,12.27
2023-02-27T21:46:28.588Z,12.17
2023-02-27T21:48:56.047Z,12.27
2023-02-27T21:51:38.769Z,12.48
2023-02-27T21:54:09.359Z,12.68
2023-02-27T21:56:37.718Z,12.94
2023-02-27T21:59:05.170Z,12.68
2023-02-27T22:01:33.558Z,12.46
2023-02-27T22:04:02.039Z,12.39
2023-02-27T22:06:34.092Z,12.17
2023-02-27T22:09:04.963Z,12.17
2023-02-27T22:11:35.046Z,12.06
2023-02-27T22:14:05.376Z,11.99
2023-02-27T22:16:32.832Z,12.07
2023-02-27T22:19:00.242Z,12.01
2023-02-27T22:21:28.521Z,11.98
2023-02-27T22:23:58.181Z,11.79
2023-02-27T22:26:28.588Z,11.84
2023-02-27T22:28:57.358Z,11.83
2023-02-27T22:31:30.890Z,11.72
2023-02-27T22:34:12.287Z,11.78
2023-02-27T22:36:41.796Z,11.74
2023-02-27T22:39:10.218Z,11.53
2023-02-27T22:41:39.794Z,11.55
2023-02-27T22:44:12.999Z,11.49
2023-02-27T22:46:43.257Z,11.41
2023-02-27T22:49:19.378Z,11.49
2023-02-27T22:51:50.731Z,11.47
2023-02-27T22:54:20.897Z,11.39
2023-02-27T22:56:50.857Z,11.52
2023-02-27T22:59:18.283Z,11.43
2023-02-27T23:01:45.797Z,11.29
2023-02-27T23:04:13.173Z,11.25
2023-02-27T23:06:41.110Z,11.41
2023-02-27T23:09:12.447Z,11.47
2023-02-27T23:11:40.400Z,11.47
2023-02-27T23:14:07.645Z,11.27
2023-02-27T23:16:35.269Z,11.13
2023-02-27T23:19:04.225Z,11.16
2023-02-27T23:21:35.099Z,11.05
2023-02-27T23:24:10.142Z,11.07
2023-02-27T23:26:39.885Z,11.09
2023-02-27T23:29:07.335Z,11.04
2023-02-27T23:31:35.991Z,11.19
2023-02-27T23:34:06.162Z,11.32
2023-02-27T23:36:37.804Z,11.46
2023-02-27T23:39:05.942Z,11.32
2023-02-27T23:41:34.300Z,11.34
2023-02-27T23:44:20.347Z,11.32
2023-02-27T23:46:47.475Z,11.35
2023-02-27T23:49:14.766Z,11.35
2023-02-27T23:51:42.066Z,11.49
2023-02-27T23:54:09.195Z,11.53
2023-02-27T23:56:36.833Z,11.88
2023-02-27T23:59:06.348Z,11.93
